createdAt,value
2019-01-21T00:00:14.848Z,54.8
2019-01-21T00:05:20.893Z,54.9
2019-01-21T00:10:27.180Z,55
2019-01-21T00:15:32.902Z,55
2019-01-21T00:20:38.311Z,55.1
2019-01-21T00:25:44.100Z,54.9
2019-01-21T00:30:50.027Z,55
2019-01-21T00:35:55.679Z,55
2019-01-21T00:41:01.514Z,55
2019-01-21T00:46:07.124Z,54.8
2019-01-21T00:51:13.053Z,55
2019-01-21T00:56:19.235Z,55
2019-01-21T01:01:24.767Z,55
2019-01-21T01:06:31.165Z,55.1
2019-01-21T01:11:36.653Z,55.1
2019-01-21T01:16:42.435Z,55
2019-01-21T01:21:48.328Z,55.2
2019-01-21T01:31:58.026Z,55
2019-01-21T01:37:03.959Z,55.2
2019-01-21T01:42:09.727Z,55.2
2019-01-21T01:47:14.952Z,55.2
2019-01-21T01:52:20.900Z,55.3
2019-01-21T01:57:26.885Z,55.2
2019-01-21T02:02:32.182Z,55.2
2019-01-21T02:07:38.056Z,55.1
2019-01-21T02:12:43.278Z,55.3
2019-01-21T02:17:54.740Z,55.1
2019-01-21T02:22:51.057Z,55.2
2019-01-21T02:27:56.091Z,55.2
2019-01-21T02:33:01.496Z,55
2019-01-21T02:38:06.572Z,55.2
2019-01-21T02:43:12.592Z,55.3
2019-01-21T02:48:18.191Z,55.3
2019-01-21T02:53:24.133Z,55.2
2019-01-21T02:58:29.329Z,55.2
2019-01-21T03:03:38.007Z,55.2
2019-01-21T03:08:43.618Z,55.4
2019-01-21T03:13:49.136Z,55.3
2019-01-21T03:18:54.640Z,55.4
2019-01-21T03:24:00.160Z,55.6
2019-01-21T03:29:05.357Z,55.4
2019-01-21T03:34:11.412Z,55.2
2019-01-21T03:39:16.453Z,55.2
2019-01-21T03:44:23.822Z,55.1
2019-01-21T03:49:28.926Z,55.1
2019-01-21T03:54:35.677Z,55.4
2019-01-21T03:59:41.848Z,55.4
2019-01-21T04:05:59.384Z,56
2019-01-21T04:11:04.564Z,55.3
2019-01-21T04:16:10.462Z,55.3
2019-01-21T04:21:15.665Z,55.3
2019-01-21T04:26:21.379Z,55.4
2019-01-21T04:31:28.972Z,55.2
2019-01-21T04:36:34.864Z,53.1
2019-01-21T04:41:40.678Z,53
2019-01-21T04:46:46.812Z,47.1
2019-01-21T04:51:52.897Z,47.1
2019-01-21T04:56:58.698Z,46.4
2019-01-21T05:02:04.404Z,46.2
2019-01-21T05:07:10.483Z,44.7
2019-01-21T05:12:15.700Z,44.7
2019-01-21T05:17:20.473Z,42.6
2019-01-21T05:27:30.729Z,43
2019-01-21T05:32:37.061Z,41.1
2019-01-21T05:37:41.451Z,41.3
2019-01-21T05:42:45.568Z,48.2
2019-01-21T05:47:51.004Z,49.4
2019-01-21T05:52:56.108Z,51
2019-01-21T05:58:01.671Z,48.8
2019-01-21T06:03:07.125Z,50.4
2019-01-21T06:08:13.000Z,50.3
2019-01-21T06:13:18.361Z,50.3
2019-01-21T06:18:23.555Z,50.3
2019-01-21T06:23:28.788Z,51.7
2019-01-21T06:28:34.279Z,50.4
2019-01-21T06:33:39.477Z,50
2019-01-21T06:38:45.017Z,50.9
2019-01-21T06:43:50.261Z,50
2019-01-21T06:48:55.405Z,50
2019-01-21T06:54:01.102Z,50.4
2019-01-21T06:59:06.826Z,50.7
2019-01-21T07:04:10.515Z,50.7
2019-01-21T07:09:14.413Z,50.2
2019-01-21T07:14:19.637Z,50.1
2019-01-21T07:19:24.995Z,50.1
2019-01-21T07:24:30.664Z,50.8
2019-01-21T07:29:35.781Z,50
2019-01-21T07:34:41.394Z,49.9
2019-01-21T07:39:46.449Z,49.9
2019-01-21T07:44:51.808Z,49.7
2019-01-21T07:49:57.263Z,49.8
2019-01-21T07:55:02.836Z,49.5
2019-01-21T08:00:07.888Z,49.4
2019-01-21T08:05:13.253Z,49.5
2019-01-21T08:10:19.368Z,49.2
2019-01-21T08:15:28.842Z,49
2019-01-21T08:20:34.005Z,49
2019-01-21T08:25:39.438Z,48.9
2019-01-21T08:30:44.976Z,48.8
2019-01-21T08:35:50.197Z,48.7
2019-01-21T08:40:55.557Z,48
2019-01-21T08:46:00.740Z,47.9
2019-01-21T08:51:06.743Z,47.8
2019-01-21T08:56:12.088Z,47.4
2019-01-21T09:01:17.300Z,47.5
2019-01-21T09:06:22.513Z,47.4
2019-01-21T09:11:27.696Z,47.3
2019-01-21T09:16:32.922Z,47.3
2019-01-21T09:21:38.022Z,47.3
2019-01-21T09:26:43.199Z,47.4
2019-01-21T09:31:47.168Z,47.6
2019-01-21T09:36:52.251Z,47.5
2019-01-21T09:46:59.868Z,48.2
2019-01-21T09:52:06.154Z,48.2
2019-01-21T09:57:11.050Z,48.2
2019-01-21T10:02:16.401Z,48
2019-01-21T10:07:21.615Z,48.1
2019-01-21T10:12:25.551Z,48.1
2019-01-21T10:17:30.964Z,48.2
2019-01-21T10:22:36.163Z,48.2
2019-01-21T10:27:41.833Z,47
2019-01-21T10:32:47.199Z,47.1
2019-01-21T10:37:53.664Z,47.9
2019-01-21T10:42:59.162Z,47.9
2019-01-21T10:48:04.244Z,48.7
2019-01-21T10:53:09.894Z,48
2019-01-21T10:58:15.236Z,47.9
2019-01-21T11:03:20.731Z,48.1
2019-01-21T11:08:25.661Z,48.1
2019-01-21T11:13:30.864Z,48.1
2019-01-21T11:18:35.893Z,48.2
2019-01-21T11:23:41.740Z,29.3
2019-01-21T11:28:46.707Z,29.2
2019-01-21T11:33:51.851Z,36.7
2019-01-21T11:38:57.325Z,36.5
2019-01-21T11:44:02.684Z,37.9
2019-01-21T11:49:07.842Z,38.9
2019-01-21T11:59:17.703Z,40.3
2019-01-21T12:04:22.733Z,40.8
2019-01-21T12:09:27.995Z,41.3
2019-01-21T12:14:33.287Z,41.9
2019-01-21T12:19:39.183Z,42.2
2019-01-21T12:24:44.972Z,42.9
2019-01-21T12:29:50.207Z,43
2019-01-21T12:39:59.608Z,43.8
2019-01-21T12:45:04.762Z,43.7
2019-01-21T12:50:10.700Z,44.3
2019-01-21T12:55:16.105Z,44.4
2019-01-21T13:00:21.630Z,44.6
2019-01-21T13:05:26.975Z,44.8
2019-01-21T13:10:32.198Z,45.1
2019-01-21T13:15:37.364Z,45.2
2019-01-21T13:20:43.056Z,45.4
2019-01-21T13:25:48.264Z,45.7
2019-01-21T13:30:54.247Z,45.7
2019-01-21T13:35:59.728Z,45.7
2019-01-21T13:41:05.905Z,45.7
2019-01-21T13:46:12.482Z,45.9
2019-01-21T13:51:18.778Z,45.9
2019-01-21T13:56:24.340Z,46
2019-01-21T14:01:29.558Z,46.5
2019-01-21T14:06:35.622Z,46.5
2019-01-21T14:11:40.664Z,46.4
2019-01-21T14:16:46.144Z,46.9
2019-01-21T14:21:51.548Z,46.3
2019-01-21T14:26:57.696Z,46
2019-01-21T14:32:02.983Z,47.1
2019-01-21T14:37:08.102Z,47
2019-01-21T14:47:18.374Z,47.2
2019-01-21T14:52:23.529Z,47
2019-01-21T14:57:28.821Z,46.8
2019-01-21T15:02:34.068Z,46.9
2019-01-21T15:07:39.549Z,46.8
2019-01-21T15:12:44.727Z,46.7
2019-01-21T15:17:53.014Z,46.4
2019-01-21T15:22:59.094Z,46.1
2019-01-21T15:28:04.639Z,46.7
2019-01-21T15:33:09.904Z,46.7
2019-01-21T15:38:17.834Z,46.6
2019-01-21T15:43:24.422Z,46.6
2019-01-21T15:48:29.812Z,46.6
2019-01-21T15:53:37.091Z,46.6
2019-01-21T15:58:42.371Z,46.4
2019-01-21T16:03:47.525Z,46.5
2019-01-21T16:08:52.724Z,51.8
2019-01-21T16:13:59.681Z,54
2019-01-21T16:19:05.175Z,54
2019-01-21T16:24:10.270Z,54.2
2019-01-21T16:29:15.427Z,54.6
2019-01-21T16:34:20.491Z,54.6
2019-01-21T16:39:25.588Z,54.8
2019-01-21T16:44:30.531Z,55.5
2019-01-21T16:49:35.711Z,55.6
2019-01-21T16:54:41.311Z,55.8
2019-01-21T16:59:47.073Z,55.8
2019-01-21T17:04:52.280Z,55.6
2019-01-21T17:09:58.928Z,55.7
2019-01-21T17:15:04.068Z,56
2019-01-21T17:20:07.669Z,56.3
2019-01-21T17:25:12.810Z,56.2
2019-01-21T17:30:17.988Z,56
2019-01-21T17:35:23.001Z,56.2
2019-01-21T17:40:28.227Z,56.4
2019-01-21T17:45:33.245Z,56.3
2019-01-21T17:50:38.768Z,56.5
2019-01-21T17:55:44.409Z,56.2
2019-01-21T18:00:54.104Z,56.6
2019-01-21T18:05:59.936Z,57
2019-01-21T18:11:06.980Z,56.9
2019-01-21T18:16:11.831Z,57
2019-01-21T18:21:18.080Z,57.2
2019-01-21T18:26:23.793Z,57.3
2019-01-21T18:31:29.299Z,57.3
2019-01-21T18:36:38.450Z,56.9
2019-01-21T18:41:43.960Z,30.1
2019-01-21T18:46:48.868Z,31.8
2019-01-21T18:51:54.624Z,35.3
2019-01-21T18:56:59.571Z,41.4
2019-01-21T19:02:04.515Z,41.3
2019-01-21T19:07:10.099Z,42.9
2019-01-21T19:12:16.354Z,43.1
2019-01-21T19:17:22.200Z,44.9
2019-01-21T19:22:28.198Z,45.4
2019-01-21T19:27:33.812Z,48.4
2019-01-21T19:32:39.007Z,48.8
2019-01-21T19:37:44.385Z,48.6
2019-01-21T19:42:49.606Z,49.1
2019-01-21T19:47:54.807Z,49.3
2019-01-21T19:58:04.479Z,49.9
2019-01-21T20:03:10.087Z,50.4
2019-01-21T20:08:15.223Z,50.4
2019-01-21T20:13:19.695Z,50.5
2019-01-21T20:18:25.013Z,51.6
2019-01-21T20:23:30.683Z,51.7
2019-01-21T20:28:36.337Z,52
2019-01-21T20:33:42.638Z,51.5
2019-01-21T20:38:47.694Z,51.4
2019-01-21T20:43:57.856Z,52.6
2019-01-21T20:49:03.099Z,52.6
2019-01-21T20:54:07.744Z,52.9
2019-01-21T20:59:12.820Z,52.4
2019-01-21T21:04:18.780Z,52.9
2019-01-21T21:14:29.421Z,52.8
2019-01-21T21:19:35.171Z,52.9
2019-01-21T21:24:39.431Z,52.6
2019-01-21T21:29:44.897Z,54
2019-01-21T21:34:50.978Z,54
2019-01-21T21:39:57.033Z,55.1
2019-01-21T21:45:02.339Z,55
2019-01-21T21:50:08.265Z,55.4
2019-01-21T21:55:13.888Z,56
2019-01-21T22:00:17.972Z,55.9
2019-01-21T22:05:23.662Z,55.5
2019-01-21T22:10:29.856Z,55.5
2019-01-21T22:15:35.116Z,55.4
2019-01-21T22:20:40.723Z,55.2
2019-01-21T22:25:45.920Z,55.1
2019-01-21T22:30:51.775Z,55.7
2019-01-21T22:35:57.563Z,55.6
2019-01-21T22:41:03.725Z,56.1
2019-01-21T22:46:09.382Z,56.1
2019-01-21T22:51:14.998Z,56
2019-01-21T22:56:20.766Z,55.5
2019-01-21T23:01:26.567Z,55.8
2019-01-21T23:06:32.085Z,55.9
2019-01-21T23:11:38.080Z,55.5
2019-01-21T23:16:43.349Z,55.5
2019-01-21T23:21:50.062Z,56.4
2019-01-21T23:26:55.671Z,56.4
2019-01-21T23:32:02.875Z,55.5
2019-01-21T23:37:08.855Z,55.4
2019-01-21T23:42:15.378Z,54.1
2019-01-21T23:47:21.725Z,54.1
2019-01-21T23:52:28.199Z,54.2
2019-01-21T23:57:33.884Z,54.2
